createdAt,value
2023-05-18T00:02:16.316Z,100731.38
2023-05-18T00:04:44.253Z,100736.28
2023-05-18T00:07:11.428Z,100737.38
2023-05-18T00:09:38.769Z,100736.78
2023-05-18T00:12:06.279Z,100734.44
2023-05-18T00:14:33.685Z,100724.97
2023-05-18T00:17:03.502Z,100729.53
2023-05-18T00:19:31.579Z,100728.13
2023-05-18T00:21:59.718Z,100722.97
2023-05-18T00:24:27.139Z,100721.47
2023-05-18T00:26:54.220Z,100722.50
2023-05-18T00:29:21.652Z,100716.53
2023-05-18T00:31:48.811Z,100714.19
2023-05-18T00:34:16.801Z,100714.59
2023-05-18T00:36:43.976Z,100715.75
2023-05-18T00:39:11.439Z,100718.84
2023-05-18T00:41:38.950Z,100719.25
2023-05-18T00:44:06.426Z,100713.44
2023-05-18T00:46:34.803Z,100718.91
2023-05-18T00:49:02.503Z,100718.13
2023-05-18T00:51:32.224Z,100720.06
2023-05-18T00:54:00.905Z,100722.03
2023-05-18T00:56:29.500Z,100719.59
2023-05-18T00:58:57.488Z,100717.09
2023-05-18T01:01:35.005Z,100718.25
2023-05-18T01:04:04.781Z,100716.69
2023-05-18T01:06:36.142Z,100715.03
2023-05-18T01:09:07.337Z,100721.44
2023-05-18T01:11:41.903Z,100723.44
2023-05-18T01:14:22.926Z,100718.28
2023-05-18T01:17:10.515Z,100719.50
2023-05-18T01:20:12.778Z,100718.88
2023-05-18T01:23:01.676Z,100718.13
2023-05-18T01:25:48.599Z,100719.38
2023-05-18T01:28:19.974Z,100720.47
2023-05-18T01:30:48.610Z,100722.34
2023-05-18T01:33:15.896Z,100726.09
2023-05-18T01:35:48.842Z,100730.72
2023-05-18T01:38:22.641Z,100725.50
2023-05-18T01:41:18.786Z,100731.06
2023-05-18T01:44:04.081Z,100732.16
2023-05-18T01:46:34.403Z,100734.94
2023-05-18T01:49:09.292Z,100735.91
2023-05-18T01:51:41.894Z,100737.03
2023-05-18T01:54:11.205Z,100743.38
2023-05-18T01:56:41.192Z,100744.53
2023-05-18T01:59:08.890Z,100740.22
2023-05-18T02:01:36.678Z,100752.72
2023-05-18T02:04:08.375Z,100746.63
2023-05-18T02:06:37.049Z,100750.34
2023-05-18T02:09:05.716Z,100745.22
2023-05-18T02:11:33.226Z,100753.25
2023-05-18T02:14:01.075Z,100757.94
2023-05-18T02:16:28.478Z,100760.72
2023-05-18T02:18:56.333Z,100761.69
2023-05-18T02:21:26.334Z,100759.94
2023-05-18T02:23:53.390Z,100760.09
2023-05-18T02:26:21.240Z,100750.34
2023-05-18T02:28:48.261Z,100760.22
2023-05-18T02:31:15.843Z,100760.22
2023-05-18T02:33:44.056Z,100754.09
2023-05-18T02:36:14.623Z,100753.28
2023-05-18T02:38:42.499Z,100757.69
2023-05-18T02:41:10.907Z,100751.41
2023-05-18T02:43:38.031Z,100753.00
2023-05-18T02:46:05.586Z,100756.34
2023-05-18T02:48:32.769Z,100757.72
2023-05-18T02:51:00.131Z,100752.06
2023-05-18T02:53:27.139Z,100762.16
2023-05-18T02:55:58.708Z,100755.56
2023-05-18T02:58:26.014Z,100755.72
2023-05-18T03:00:55.626Z,100755.72
2023-05-18T03:03:24.076Z,100756.53
2023-05-18T03:05:53.029Z,100750.13
2023-05-18T03:08:22.827Z,100754.03
2023-05-18T03:10:50.564Z,100755.22
2023-05-18T03:13:17.862Z,100764.22
2023-05-18T03:15:49.421Z,100762.59
2023-05-18T03:18:16.762Z,100762.72
2023-05-18T03:20:47.161Z,100758.56
2023-05-18T03:23:14.177Z,100764.03
2023-05-18T03:25:43.362Z,100767.31
2023-05-18T03:28:11.753Z,100768.28
2023-05-18T03:30:39.343Z,100765.22
2023-05-18T03:33:06.469Z,100765.19
2023-05-18T03:35:34.207Z,100765.81
2023-05-18T03:38:01.246Z,100774.44
2023-05-18T03:40:29.366Z,100771.38
2023-05-18T03:42:56.520Z,100780.66
2023-05-18T03:45:23.933Z,100779.09
2023-05-18T03:47:51.442Z,100780.31
2023-05-18T03:50:18.892Z,100779.72
2023-05-18T03:52:45.993Z,100778.88
2023-05-18T03:55:13.713Z,100775.28
2023-05-18T03:57:40.864Z,100780.75
2023-05-18T04:00:12.536Z,100780.38
2023-05-18T04:02:40.878Z,100776.28
2023-05-18T04:05:10.134Z,100778.78
2023-05-18T04:07:44.311Z,100774.91
2023-05-18T04:10:17.881Z,100763.00
2023-05-18T04:12:45.268Z,100773.91
2023-05-18T04:15:14.761Z,100779.44
2023-05-18T04:17:52.025Z,100772.81
2023-05-18T04:20:34.947Z,100778.34
2023-05-18T04:23:11.613Z,100773.78
2023-05-18T04:25:58.143Z,100777.09
2023-05-18T04:28:43.943Z,100779.16
2023-05-18T04:31:18.113Z,100774.91
2023-05-18T04:33:56.070Z,100778.53
2023-05-18T04:36:40.896Z,100780.50
2023-05-18T04:39:10.527Z,100793.50
2023-05-18T04:44:39.425Z,100800.59
2023-05-18T04:47:08.878Z,100795.72
2023-05-18T04:49:37.293Z,100801.91
2023-05-18T04:52:16.862Z,100805.44
2023-05-18T04:58:00.846Z,100797.53
2023-05-18T05:00:30.247Z,100806.13
2023-05-18T05:02:59.227Z,100800.94
2023-05-18T05:05:27.670Z,100802.63
2023-05-18T05:07:55.926Z,100808.72
2023-05-18T05:10:24.128Z,100807.28
2023-05-18T05:12:52.259Z,100807.06
2023-05-18T05:15:21.323Z,100813.78
2023-05-18T05:17:49.153Z,100814.44
2023-05-18T05:20:17.808Z,100816.66
2023-05-18T05:22:45.416Z,100813.09
2023-05-18T05:25:15.430Z,100814.41
2023-05-18T05:27:42.671Z,100817.13
2023-05-18T05:30:12.021Z,100826.38
2023-05-18T05:32:39.250Z,100816.78
2023-05-18T05:35:07.852Z,100818.06
2023-05-18T05:37:35.726Z,100826.22
2023-05-18T05:40:06.567Z,100814.22
2023-05-18T05:42:34.613Z,100813.03
2023-05-18T05:45:04.570Z,100824.19
2023-05-18T05:47:31.911Z,100818.28
2023-05-18T05:50:01.754Z,100823.44
2023-05-18T05:52:29.226Z,100824.88
2023-05-18T05:54:58.353Z,100821.19
2023-05-18T05:57:25.983Z,100818.13
2023-05-18T05:59:53.914Z,100825.16
2023-05-18T06:02:28.220Z,100822.00
2023-05-18T06:05:02.925Z,100821.13
2023-05-18T06:07:30.915Z,100828.56
2023-05-18T06:09:59.970Z,100828.38
2023-05-18T06:12:27.699Z,100820.94
2023-05-18T06:14:58.618Z,100831.75
2023-05-18T06:17:26.888Z,100841.78
2023-05-18T06:19:55.052Z,100831.75
2023-05-18T06:22:22.644Z,100834.94
2023-05-18T06:24:50.315Z,100833.22
2023-05-18T06:27:18.273Z,100823.13
2023-05-18T06:29:46.263Z,100830.50
2023-05-18T06:32:14.731Z,100825.72
2023-05-18T06:34:43.160Z,100825.91
2023-05-18T06:37:13.150Z,100825.91
2023-05-18T06:39:41.379Z,100824.69
2023-05-18T06:42:18.709Z,100826.06
2023-05-18T06:44:48.512Z,100824.31
2023-05-18T06:50:49.154Z,100814.69
2023-05-18T06:53:17.019Z,100819.47
2023-05-18T06:55:44.192Z,100817.13
2023-05-18T06:58:12.230Z,100815.16
2023-05-18T07:00:39.530Z,100813.47
2023-05-18T07:03:08.773Z,100815.94
2023-05-18T07:05:39.198Z,100812.31
2023-05-18T07:08:11.940Z,100814.50
2023-05-18T07:10:39.441Z,100828.41
2023-05-18T07:13:07.522Z,100823.53
2023-05-18T07:15:35.198Z,100824.09
2023-05-18T07:18:03.822Z,100820.03
2023-05-18T07:20:31.317Z,100815.81
2023-05-18T07:22:58.994Z,100813.00
2023-05-18T07:25:26.380Z,100815.22
2023-05-18T07:27:56.086Z,100812.09
2023-05-18T07:30:26.958Z,100812.78
2023-05-18T07:32:58.439Z,100811.97
2023-05-18T07:35:36.123Z,100817.19
2023-05-18T07:38:04.929Z,100811.72
2023-05-18T07:40:34.533Z,100810.00
2023-05-18T07:43:02.042Z,100808.72
2023-05-18T07:45:31.083Z,100809.19
2023-05-18T07:47:59.145Z,100811.31
2023-05-18T07:50:26.910Z,100809.63
2023-05-18T07:52:57.913Z,100804.81
2023-05-18T07:55:28.600Z,100798.97
2023-05-18T07:57:57.543Z,100815.19
2023-05-18T08:00:25.243Z,100805.97
2023-05-18T08:02:53.616Z,100799.94
2023-05-18T08:05:23.296Z,100798.84
2023-05-18T08:08:06.953Z,100804.88
2023-05-18T08:10:34.442Z,100804.88
2023-05-18T08:13:04.648Z,100790.47
2023-05-18T08:15:38.602Z,100799.22
2023-05-18T08:18:08.251Z,100790.75
2023-05-18T08:20:35.580Z,100795.66
2023-05-18T08:23:03.292Z,100803.00
2023-05-18T08:25:30.898Z,100790.53
2023-05-18T08:28:17.201Z,100787.91
2023-05-18T08:30:44.663Z,100789.28
2023-05-18T08:33:12.371Z,100782.19
2023-05-18T08:35:40.130Z,100788.97
2023-05-18T08:38:07.788Z,100797.72
2023-05-18T08:40:47.814Z,100790.53
2023-05-18T08:43:33.519Z,100796.63
2023-05-18T08:46:32.020Z,100805.16
2023-05-18T08:49:02.799Z,100798.59
2023-05-18T08:51:34.720Z,100806.75
2023-05-18T08:54:06.424Z,100802.13
2023-05-18T08:56:39.071Z,100793.00
2023-05-18T08:59:09.340Z,100799.56
2023-05-18T12:11:18.558Z,100737.41
2023-05-18T12:17:03.511Z,100735.03
2023-05-18T12:35:59.999Z,100723.81
2023-05-18T13:00:38.756Z,100725.56
2023-05-18T14:13:23.610Z,100712.03
2023-05-18T15:54:22.701Z,100683.97
2023-05-18T15:57:57.993Z,100692.56
2023-05-18T16:03:54.184Z,100698.34
2023-05-18T16:06:37.223Z,100694.50
2023-05-18T16:11:50.792Z,100706.78
2023-05-18T16:14:19.585Z,100707.50
2023-05-18T16:16:50.181Z,100700.66
2023-05-18T16:19:21.956Z,100707.72
2023-05-18T16:21:49.299Z,100709.72
2023-05-18T16:24:17.028Z,100713.72
2023-05-18T16:26:46.111Z,100723.13
2023-05-18T16:29:14.659Z,100714.72
2023-05-18T16:31:42.203Z,100725.88
2023-05-18T16:34:30.133Z,100715.03
2023-05-18T16:37:06.731Z,100716.03
2023-05-18T16:40:42.783Z,100716.31
2023-05-18T16:43:15.837Z,100723.03
2023-05-18T16:45:44.244Z,100715.47
2023-05-18T16:48:12.076Z,100714.44
2023-05-18T16:50:42.459Z,100719.13
2023-05-18T16:53:11.108Z,100720.56
2023-05-18T16:55:38.667Z,100725.84
2023-05-18T16:58:06.614Z,100724.28
2023-05-18T17:00:34.508Z,100722.13
2023-05-18T17:03:06.393Z,100727.94
2023-05-18T17:05:34.803Z,100732.25
2023-05-18T17:08:02.719Z,100732.81
2023-05-18T17:10:32.116Z,100727.66
2023-05-18T17:13:00.174Z,100727.50
2023-05-18T17:15:27.661Z,100729.78
2023-05-18T17:20:37.231Z,100724.84
2023-05-18T17:23:04.947Z,100722.09
2023-05-18T17:25:32.058Z,100724.91
2023-05-18T17:27:59.739Z,100721.25
2023-05-18T17:30:28.453Z,100724.31
2023-05-18T17:32:56.941Z,100730.66
2023-05-18T17:35:24.237Z,100739.16
2023-05-18T17:37:55.751Z,100737.81
2023-05-18T17:40:24.082Z,100737.38
2023-05-18T17:42:52.611Z,100739.88
2023-05-18T17:45:20.551Z,100744.34
2023-05-18T17:47:48.973Z,100745.13
2023-05-18T17:50:16.305Z,100733.38
2023-05-18T17:52:43.834Z,100739.41
2023-05-18T17:55:10.947Z,100741.44
2023-05-18T17:57:45.260Z,100752.13
2023-05-18T18:00:16.014Z,100757.44
2023-05-18T18:02:43.741Z,100760.03
2023-05-18T18:05:11.171Z,100754.75
2023-05-18T18:07:39.378Z,100763.69
2023-05-18T18:10:08.850Z,100757.84
2023-05-18T18:12:36.259Z,100760.03
2023-05-18T18:15:03.494Z,100774.78
2023-05-18T18:17:31.531Z,100778.72
2023-05-18T18:19:58.814Z,100782.53
2023-05-18T18:22:26.742Z,100779.56
2023-05-18T18:24:55.110Z,100785.97
2023-05-18T18:27:22.690Z,100784.47
2023-05-18T18:29:49.774Z,100788.28
2023-05-18T18:32:17.333Z,100794.66
2023-05-18T18:34:44.629Z,100789.38
2023-05-18T18:37:12.572Z,100799.22
2023-05-18T18:39:40.987Z,100796.63
2023-05-18T18:42:08.881Z,100808.53
2023-05-18T18:44:36.080Z,100804.25
2023-05-18T18:47:03.808Z,100792.84
2023-05-18T18:49:33.463Z,100803.00
2023-05-18T18:52:02.980Z,100799.69
2023-05-18T18:54:31.511Z,100801.75
2023-05-18T18:57:00.799Z,100797.94
2023-05-18T18:59:32.780Z,100810.03
2023-05-18T19:02:00.900Z,100801.56
2023-05-18T19:04:28.030Z,100806.56
2023-05-18T19:06:56.776Z,100807.94
2023-05-18T19:09:23.905Z,100805.56
2023-05-18T19:11:51.820Z,100812.16
2023-05-18T19:14:18.914Z,100813.28
2023-05-18T19:16:47.557Z,100809.84
2023-05-18T19:19:14.879Z,100814.59
2023-05-18T19:21:44.479Z,100815.69
2023-05-18T19:24:11.774Z,100811.63
2023-05-18T19:26:40.122Z,100810.66
2023-05-18T19:29:08.581Z,100813.59
2023-05-18T19:31:38.120Z,100817.25
2023-05-18T19:34:05.761Z,100821.66
2023-05-18T19:36:33.396Z,100811.25
2023-05-18T19:39:10.095Z,100822.50
2023-05-18T19:41:38.666Z,100824.91
2023-05-18T19:44:05.994Z,100815.91
2023-05-18T19:46:37.290Z,100809.00
2023-05-18T19:49:10.239Z,100812.84
2023-05-18T19:51:38.295Z,100816.75
2023-05-18T19:54:06.138Z,100818.84
2023-05-18T19:56:49.240Z,100819.91
2023-05-18T19:59:16.893Z,100812.25
2023-05-18T20:01:45.866Z,100821.00
2023-05-18T20:04:13.844Z,100826.16
2023-05-18T20:06:41.887Z,100828.63
2023-05-18T20:09:10.251Z,100823.13
2023-05-18T20:11:37.613Z,100826.69
2023-05-18T20:14:05.138Z,100825.06
2023-05-18T20:16:34.594Z,100833.06
2023-05-18T20:19:03.471Z,100834.88
2023-05-18T20:21:32.154Z,100835.59
2023-05-18T20:23:59.549Z,100838.09
2023-05-18T20:26:29.241Z,100836.34
2023-05-18T20:28:57.784Z,100846.94
2023-05-18T20:31:25.174Z,100841.00
2023-05-18T20:33:57.025Z,100837.56
2023-05-18T20:39:07.646Z,100842.59
2023-05-18T20:41:40.283Z,100839.91
2023-05-18T20:44:11.298Z,100847.16
2023-05-18T20:46:42.794Z,100843.06
2023-05-18T20:49:12.314Z,100846.94
2023-05-18T20:51:39.654Z,100850.19
2023-05-18T20:54:07.251Z,100855.16
2023-05-18T20:56:36.351Z,100857.31
2023-05-18T20:59:06.536Z,100859.72
2023-05-18T21:01:39.454Z,100858.44
2023-05-18T21:04:07.215Z,100861.56
2023-05-18T21:06:34.666Z,100859.31
2023-05-18T21:09:02.000Z,100864.19
2023-05-18T21:11:31.033Z,100864.38
2023-05-18T21:13:58.144Z,100859.34
2023-05-18T21:16:25.731Z,100853.53
2023-05-18T21:18:52.804Z,100859.22
2023-05-18T21:21:20.165Z,100857.81
2023-05-18T21:23:47.246Z,100859.97
2023-05-18T21:26:14.647Z,100861.06
2023-05-18T21:28:44.116Z,100857.63
2023-05-18T21:31:12.518Z,100858.47
2023-05-18T21:33:39.657Z,100854.78
2023-05-18T21:36:09.104Z,100856.31
2023-05-18T21:38:36.271Z,100851.47
2023-05-18T21:41:05.780Z,100853.31
2023-05-18T21:43:32.925Z,100852.44
2023-05-18T21:46:02.159Z,100861.28
2023-05-18T21:48:29.231Z,100858.47
2023-05-18T21:50:56.730Z,100864.41
2023-05-18T21:53:23.770Z,100865.25
2023-05-18T21:55:51.203Z,100861.47
2023-05-18T21:58:20.883Z,100853.72
2023-05-18T22:00:48.227Z,100851.28
2023-05-18T22:03:15.293Z,100861.06
2023-05-18T22:08:29.405Z,100848.44
2023-05-18T22:11:11.793Z,100846.63
2023-05-18T22:13:39.565Z,100851.03
2023-05-18T22:16:06.698Z,100850.28
2023-05-18T22:18:34.164Z,100868.03
2023-05-18T22:21:01.494Z,100845.88
2023-05-18T22:23:28.880Z,100857.06
2023-05-18T22:25:56.053Z,100851.16
2023-05-18T22:28:23.571Z,100854.03
2023-05-18T22:36:30.517Z,100850.13
2023-05-18T22:38:58.346Z,100847.88
2023-05-18T22:41:26.989Z,100850.25
2023-05-18T22:43:54.136Z,100849.91
2023-05-18T22:46:21.679Z,100860.19
2023-05-18T22:48:52.563Z,100850.09
2023-05-18T22:51:20.035Z,100849.53
2023-05-18T22:53:47.363Z,100846.31
2023-05-18T22:56:20.197Z,100849.19
2023-05-18T22:58:47.375Z,100854.66
2023-05-18T23:01:16.920Z,100861.78
2023-05-18T23:03:44.019Z,100844.97
2023-05-18T23:06:11.695Z,100844.41
2023-05-18T23:08:38.731Z,100843.56
2023-05-18T23:11:06.918Z,100842.81
2023-05-18T23:13:40.822Z,100844.06
2023-05-18T23:16:10.569Z,100844.97
2023-05-18T23:18:39.372Z,100850.34
2023-05-18T23:21:09.067Z,100845.91
2023-05-18T23:23:36.107Z,100847.75
2023-05-18T23:26:03.656Z,100844.38
2023-05-18T23:28:30.897Z,100848.91
2023-05-18T23:31:01.365Z,100847.16
2023-05-18T23:33:29.041Z,100850.63
2023-05-18T23:36:02.667Z,100846.88
2023-05-18T23:38:35.111Z,100843.13
2023-05-18T23:41:04.074Z,100851.09
2023-05-18T23:43:31.442Z,100850.97
2023-05-18T23:46:00.052Z,100848.28
2023-05-18T23:48:29.841Z,100853.66
2023-05-18T23:51:01.436Z,100847.41
2023-05-18T23:53:32.958Z,100843.13
2023-05-18T23:56:01.307Z,100844.06
2023-05-18T23:58:32.431Z,100843.13
